PRIVATE WETTERSTATION BILLIGHEIM-ALLFELD                       ZURCK
Wetterdaten: Freitag, 05.05.2017
Datum Zeit Temp. A. Temp. A. min Temp. A. max Feuchte A. Luftdruck Regen Wind Richtung Richtung Sonnenschein ET Solar Taupunkt Windchill Windben Empfang
05.05.2017 00:00 7,1 C 7,1 C 7,1 C 91 % 1016,5 hPa 0,0 l/m 0,0 km/h (0 Bft) N 0 0 min 0,000 mm 0 W/m 5,7 C 7,1 C 0,0 km/h (0 Bft) 100 %
05.05.2017 00:10 7,1 C 7,1 C 7,1 C 91 % 1016,5 hPa 0,0 l/m 0,0 km/h (0 Bft) N 0 0 min 0,000 mm 0 W/m 5,7 C 7,1 C 0,0 km/h (0 Bft) 100 %
05.05.2017 00:20 7,1 C 7,1 C 7,1 C 91 % 1016,6 hPa 0,0 l/m 0,0 km/h (0 Bft) N 0 0 min 0,000 mm 0 W/m 5,7 C 7,1 C 0,0 km/h (0 Bft) 100 %
05.05.2017 00:30 7,1 C 7,1 C 7,1 C 91 % 1016,7 hPa 0,0 l/m 0,0 km/h (0 Bft) N 0 0 min 0,000 mm 0 W/m 5,7 C 7,1 C 0,0 km/h (0 Bft) 99 %
05.05.2017 00:40 7,1 C 7,1 C 7,1 C 91 % 1016,7 hPa 0,0 l/m 0,0 km/h (0 Bft) N 0 0 min 0,000 mm 0 W/m 5,7 C 7,1 C 0,0 km/h (0 Bft) 100 %
05.05.2017 00:50 7,1 C 7,1 C 7,1 C 91 % 1016,7 hPa 0,0 l/m 0,0 km/h (0 Bft) N 0 0 min 0,000 mm 0 W/m 5,7 C 7,1 C 0,0 km/h (0 Bft) 100 %
05.05.2017 01:00 7,1 C 7,1 C 7,1 C 91 % 1016,7 hPa 0,0 l/m 0,0 km/h (0 Bft) N 0 0 min 0,000 mm 0 W/m 5,7 C 7,1 C 0,0 km/h (0 Bft) 100 %
05.05.2017 01:10 7,1 C 7,1 C 7,1 C 91 % 1016,8 hPa 0,0 l/m 0,0 km/h (0 Bft) N 0 0 min 0,000 mm 0 W/m 5,7 C 7,1 C 0,0 km/h (0 Bft) 100 %
05.05.2017 01:20 7,0 C 7,0 C 7,1 C 91 % 1016,9 hPa 0,0 l/m 0,0 km/h (0 Bft) N 0 0 min 0,000 mm 0 W/m 5,6 C 7,0 C 0,0 km/h (0 Bft) 99 %
05.05.2017 01:30 6,9 C 6,9 C 7,0 C 91 % 1016,9 hPa 0,0 l/m 0,0 km/h (0 Bft) N 0 0 min 0,000 mm 0 W/m 5,5 C 6,9 C 0,0 km/h (0 Bft) 100 %
05.05.2017 01:40 6,9 C 6,9 C 7,0 C 91 % 1016,9 hPa 0,0 l/m 0,0 km/h (0 Bft) N 0 0 min 0,000 mm 0 W/m 5,5 C 6,9 C 0,0 km/h (0 Bft) 100 %
05.05.2017 01:50 7,1 C 6,9 C 7,1 C 91 % 1016,9 hPa 0,0 l/m 0,0 km/h (0 Bft) N 0 0 min 0,000 mm 0 W/m 5,7 C 7,1 C 0,0 km/h (0 Bft) 100 %
05.05.2017 02:00 7,1 C 7,1 C 7,1 C 91 % 1016,9 hPa 0,0 l/m 0,0 km/h (0 Bft) N 0 0 min 0,000 mm 0 W/m 5,7 C 7,1 C 0,0 km/h (0 Bft) 100 %
05.05.2017 02:10 7,2 C 7,1 C 7,2 C 92 % 1016,9 hPa 0,0 l/m 0,0 km/h (0 Bft) N 0 0 min 0,000 mm 0 W/m 6,0 C 7,2 C 0,0 km/h (0 Bft) 89 %
05.05.2017 02:20 7,2 C 7,2 C 7,2 C 92 % 1016,9 hPa 0,0 l/m 0,0 km/h (0 Bft) N 0 0 min 0,000 mm 0 W/m 6,0 C 7,2 C 0,0 km/h (0 Bft) 100 %
05.05.2017 02:30 7,3 C 7,2 C 7,3 C 92 % 1016,8 hPa 0,0 l/m 0,0 km/h (0 Bft) N 0 0 min 0,000 mm 0 W/m 6,1 C 7,3 C 0,0 km/h (0 Bft) 100 %
05.05.2017 02:40 7,3 C 7,3 C 7,3 C 92 % 1016,8 hPa 0,0 l/m 0,0 km/h (0 Bft) N 0 0 min 0,000 mm 0 W/m 6,1 C 7,3 C 0,0 km/h (0 Bft) 100 %
05.05.2017 02:50 7,3 C 7,3 C 7,3 C 92 % 1016,7 hPa 0,0 l/m 0,0 km/h (0 Bft) N 0 0 min 0,000 mm 0 W/m 6,1 C 7,3 C 0,0 km/h (0 Bft) 100 %
05.05.2017 03:00 7,3 C 7,3 C 7,4 C 91 % 1016,8 hPa 0,0 l/m 0,0 km/h (0 Bft) N 0 0 min 0,000 mm 0 W/m 5,9 C 7,3 C 0,0 km/h (0 Bft) 100 %
05.05.2017 03:10 7,4 C 7,3 C 7,4 C 91 % 1016,7 hPa 0,0 l/m 0,0 km/h (0 Bft) N 0 0 min 0,000 mm 0 W/m 6,0 C 7,4 C 0,0 km/h (0 Bft) 100 %
05.05.2017 03:20 7,4 C 7,3 C 7,4 C 91 % 1016,8 hPa 0,0 l/m 0,0 km/h (0 Bft) N 0 0 min 0,000 mm 0 W/m 6,0 C 7,4 C 0,0 km/h (0 Bft) 100 %
05.05.2017 03:30 7,4 C 7,3 C 7,4 C 91 % 1016,8 hPa 0,0 l/m 0,0 km/h (0 Bft) N 0 0 min 0,000 mm 0 W/m 6,0 C 7,4 C 0,0 km/h (0 Bft) 100 %
05.05.2017 03:40 7,4 C 7,4 C 7,4 C 91 % 1016,7 hPa 0,0 l/m 0,0 km/h (0 Bft) N 0 0 min 0,000 mm 0 W/m 6,0 C 7,4 C 0,0 km/h (0 Bft) 100 %
05.05.2017 03:50 7,4 C 7,4 C 7,4 C 91 % 1016,7 hPa 0,0 l/m 0,0 km/h (0 Bft) N 0 0 min 0,000 mm 0 W/m 6,0 C 7,4 C 0,0 km/h (0 Bft) 100 %
05.05.2017 04:00 7,4 C 7,4 C 7,4 C 91 % 1016,7 hPa 0,0 l/m 0,0 km/h (0 Bft) N 0 0 min 0,000 mm 0 W/m 6,0 C 7,4 C 0,0 km/h (0 Bft) 100 %
05.05.2017 04:10 7,4 C 7,4 C 7,5 C 91 % 1016,8 hPa 0,0 l/m 0,0 km/h (0 Bft) N 0 0 min 0,000 mm 0 W/m 6,0 C 7,4 C 0,0 km/h (0 Bft) 100 %
05.05.2017 04:20 7,5 C 7,4 C 7,5 C 92 % 1016,8 hPa 0,0 l/m 0,0 km/h (0 Bft) N 0 0 min 0,000 mm 0 W/m 6,3 C 7,5 C 0,0 km/h (0 Bft) 100 %
05.05.2017 04:30 7,5 C 7,5 C 7,5 C 92 % 1016,9 hPa 0,0 l/m 0,0 km/h (0 Bft) N 0 0 min 0,000 mm 0 W/m 6,3 C 7,5 C 0,0 km/h (0 Bft) 100 %
05.05.2017 04:40 7,6 C 7,5 C 7,6 C 92 % 1017,1 hPa 0,0 l/m 0,0 km/h (0 Bft) N 0 0 min 0,000 mm 0 W/m 6,4 C 7,6 C 0,0 km/h (0 Bft) 100 %
05.05.2017 04:50 7,5 C 7,5 C 7,6 C 92 % 1017,1 hPa 0,0 l/m 0,0 km/h (0 Bft) N 0 0 min 0,000 mm 0 W/m 6,3 C 7,5 C 0,0 km/h (0 Bft) 100 %
05.05.2017 05:00 7,6 C 7,5 C 7,6 C 92 % 1017,0 hPa 0,0 l/m 0,0 km/h (0 Bft) N 0 0 min 0,000 mm 0 W/m 6,4 C 7,6 C 0,0 km/h (0 Bft) 100 %
05.05.2017 05:10 7,6 C 7,6 C 7,6 C 92 % 1016,8 hPa 0,0 l/m 0,0 km/h (0 Bft) N 0 0 min 0,000 mm 0 W/m 6,4 C 7,6 C 0,0 km/h (0 Bft) 100 %
05.05.2017 05:20 7,6 C 7,6 C 7,6 C 92 % 1017,0 hPa 0,0 l/m 0,0 km/h (0 Bft) N 0 0 min 0,000 mm 0 W/m 6,4 C 7,6 C 0,0 km/h (0 Bft) 100 %
05.05.2017 05:30 7,5 C 7,4 C 7,6 C 91 % 1017,1 hPa 0,0 l/m 0,0 km/h (0 Bft) N 0 0 min 0,000 mm 0 W/m 6,1 C 7,5 C 0,0 km/h (0 Bft) 100 %
05.05.2017 05:40 7,4 C 7,4 C 7,5 C 91 % 1017,2 hPa 0,0 l/m 0,0 km/h (0 Bft) N 0 0 min 0,000 mm 0 W/m 6,0 C 7,4 C 0,0 km/h (0 Bft) 100 %
05.05.2017 05:50 7,5 C 7,4 C 7,5 C 91 % 1017,2 hPa 0,0 l/m 0,0 km/h (0 Bft) N 0 0 min 0,000 mm 0 W/m 6,1 C 7,5 C 0,0 km/h (0 Bft) 100 %
05.05.2017 06:00 7,5 C 7,5 C 7,5 C 92 % 1017,3 hPa 0,0 l/m 0,0 km/h (0 Bft) N 0 0 min 0,000 mm 0 W/m 6,3 C 7,5 C 0,0 km/h (0 Bft) 100 %
05.05.2017 06:10 7,5 C 7,5 C 7,5 C 92 % 1017,3 hPa 0,0 l/m 0,0 km/h (0 Bft) N 0 0 min 0,000 mm 5 W/m 6,3 C 7,5 C 0,0 km/h (0 Bft) 100 %
05.05.2017 06:20 7,5 C 7,5 C 7,6 C 92 % 1017,2 hPa 0,0 l/m 0,0 km/h (0 Bft) N 0 0 min 0,000 mm 11 W/m 6,3 C 7,5 C 0,0 km/h (0 Bft) 100 %
05.05.2017 06:30 7,5 C 7,5 C 7,6 C 92 % 1017,4 hPa 0,0 l/m 0,0 km/h (0 Bft) N 0 0 min 0,000 mm 18 W/m 6,3 C 7,5 C 0,0 km/h (0 Bft) 100 %
05.05.2017 06:40 7,4 C 7,4 C 7,5 C 92 % 1017,4 hPa 0,0 l/m 0,0 km/h (0 Bft) N 0 0 min 0,000 mm 19 W/m 6,2 C 7,4 C 0,0 km/h (0 Bft) 100 %
05.05.2017 06:50 7,4 C 7,4 C 7,4 C 91 % 1017,6 hPa 0,0 l/m 0,0 km/h (0 Bft) N 0 0 min 0,000 mm 21 W/m 6,0 C 7,4 C 0,0 km/h (0 Bft) 99 %
05.05.2017 07:00 7,4 C 7,4 C 7,4 C 91 % 1017,7 hPa 0,0 l/m 0,0 km/h (0 Bft) N 0 0 min 0,000 mm 26 W/m 6,0 C 7,4 C 0,0 km/h (0 Bft) 90 %
05.05.2017 07:10 7,6 C 7,4 C 7,6 C 92 % 1017,7 hPa 0,0 l/m 0,0 km/h (0 Bft) N 0 0 min 0,000 mm 44 W/m 6,4 C 7,6 C 0,0 km/h (0 Bft) 100 %
05.05.2017 07:20 7,8 C 7,6 C 7,8 C 91 % 1017,7 hPa 0,0 l/m 0,0 km/h (0 Bft) N 0 0 min 0,000 mm 49 W/m 6,4 C 7,8 C 0,0 km/h (0 Bft) 100 %
05.05.2017 07:30 7,9 C 7,8 C 7,9 C 92 % 1017,8 hPa 0,0 l/m 0,0 km/h (0 Bft) N 0 0 min 0,000 mm 60 W/m 6,7 C 7,9 C 0,0 km/h (0 Bft) 100 %
05.05.2017 07:40 8,1 C 7,9 C 8,1 C 91 % 1017,9 hPa 0,0 l/m 0,0 km/h (0 Bft) N 360 0 min 0,000 mm 83 W/m 6,7 C 8,1 C 1,6 km/h (1 Bft) 100 %
05.05.2017 07:50 8,2 C 8,1 C 8,2 C 92 % 1018,1 hPa 0,0 l/m 1,6 km/h (1 Bft) N 360 0 min 0,000 mm 79 W/m 7,0 C 8,2 C 4,8 km/h (1 Bft) 100 %
05.05.2017 08:00 8,2 C 8,2 C 8,2 C 92 % 1018,1 hPa 0,0 l/m 0,0 km/h (0 Bft) N 360 0 min 0,025 mm 54 W/m 7,0 C 8,2 C 3,2 km/h (1 Bft) 100 %
05.05.2017 08:10 8,3 C 8,2 C 8,3 C 92 % 1018,3 hPa 0,0 l/m 0,0 km/h (0 Bft) N 360 10 min 0,000 mm 160 W/m 7,1 C 8,3 C 1,6 km/h (1 Bft) 100 %
05.05.2017 08:20 8,7 C 8,3 C 8,7 C 91 % 1018,1 hPa 0,0 l/m 0,0 km/h (0 Bft) N 360 10 min 0,000 mm 172 W/m 7,3 C 8,7 C 1,6 km/h (1 Bft) 100 %
05.05.2017 08:30 9,0 C 8,7 C 9,0 C 91 % 1018,2 hPa 0,0 l/m 0,0 km/h (0 Bft) N-NW 337 10 min 0,000 mm 288 W/m 7,6 C 9,0 C 1,6 km/h (1 Bft) 100 %
05.05.2017 08:40 9,1 C 9,0 C 9,1 C 91 % 1018,3 hPa 0,0 l/m 0,0 km/h (0 Bft) N-NW 337 10 min 0,000 mm 207 W/m 7,7 C 9,1 C 1,6 km/h (1 Bft) 100 %
05.05.2017 08:50 9,3 C 9,1 C 9,3 C 92 % 1018,3 hPa 0,0 l/m 0,0 km/h (0 Bft) N 0 10 min 0,000 mm 301 W/m 8,1 C 9,3 C 0,0 km/h (0 Bft) 100 %
05.05.2017 09:00 9,7 C 9,3 C 9,7 C 91 % 1018,4 hPa 0,0 l/m 0,0 km/h (0 Bft) N-NW 337 10 min 0,076 mm 411 W/m 8,3 C 9,7 C 1,6 km/h (1 Bft) 100 %
05.05.2017 09:10 10,3 C 9,7 C 10,3 C 92 % 1018,4 hPa 0,0 l/m 0,0 km/h (0 Bft) N 0 10 min 0,000 mm 527 W/m 9,1 C 10,3 C 0,0 km/h (0 Bft) 100 %
05.05.2017 09:20 10,6 C 10,3 C 10,7 C 91 % 1018,4 hPa 0,0 l/m 0,0 km/h (0 Bft) N 0 10 min 0,000 mm 380 W/m 9,2 C 10,6 C 0,0 km/h (0 Bft) 100 %
05.05.2017 09:30 10,6 C 10,6 C 10,7 C 89 % 1018,5 hPa 0,0 l/m 0,0 km/h (0 Bft) N 0 10 min 0,000 mm 287 W/m 8,9 C 10,6 C 0,0 km/h (0 Bft) 100 %
05.05.2017 09:40 10,6 C 10,6 C 10,6 C 88 % 1018,5 hPa 0,0 l/m 0,0 km/h (0 Bft) N 0 10 min 0,000 mm 274 W/m 8,7 C 10,6 C 0,0 km/h (0 Bft) 100 %
05.05.2017 09:50 10,8 C 10,6 C 10,8 C 88 % 1018,6 hPa 0,0 l/m 0,0 km/h (0 Bft) N 360 10 min 0,000 mm 320 W/m 8,9 C 10,8 C 1,6 km/h (1 Bft) 100 %
05.05.2017 10:00 11,3 C 10,8 C 11,3 C 88 % 1018,5 hPa 0,0 l/m 0,0 km/h (0 Bft) N-NW 337 10 min 0,152 mm 722 W/m 9,4 C 11,3 C 1,6 km/h (1 Bft) 100 %
05.05.2017 10:10 12,4 C 11,4 C 12,4 C 85 % 1018,5 hPa 0,0 l/m 0,0 km/h (0 Bft) W 270 10 min 0,000 mm 805 W/m 9,9 C 12,4 C 8,0 km/h (2 Bft) 100 %
05.05.2017 10:20 12,7 C 12,4 C 12,8 C 77 % 1018,5 hPa 0,0 l/m 3,2 km/h (1 Bft) W-NW 292 10 min 0,000 mm 338 W/m 8,8 C 12,7 C 8,0 km/h (2 Bft) 100 %
05.05.2017 10:30 12,3 C 12,3 C 12,7 C 78 % 1018,6 hPa 0,0 l/m 1,6 km/h (1 Bft) W-NW 292 10 min 0,000 mm 302 W/m 8,6 C 12,3 C 6,4 km/h (2 Bft) 100 %
05.05.2017 10:40 12,0 C 12,0 C 12,2 C 80 % 1018,5 hPa 0,0 l/m 0,0 km/h (0 Bft) W-NW 292 10 min 0,000 mm 357 W/m 8,7 C 12,0 C 1,6 km/h (1 Bft) 100 %
05.05.2017 10:50 12,0 C 11,9 C 12,0 C 80 % 1018,5 hPa 0,0 l/m 0,0 km/h (0 Bft) NW 315 10 min 0,000 mm 292 W/m 8,7 C 12,0 C 1,6 km/h (1 Bft) 100 %
05.05.2017 11:00 12,2 C 12,0 C 12,2 C 81 % 1018,5 hPa 0,0 l/m 0,0 km/h (0 Bft) NW 315 10 min 0,178 mm 338 W/m 9,0 C 12,2 C 1,6 km/h (1 Bft) 90 %
05.05.2017 11:10 12,3 C 12,2 C 12,3 C 79 % 1018,5 hPa 0,0 l/m 0,0 km/h (0 Bft) N 0 10 min 0,000 mm 345 W/m 8,8 C 12,3 C 0,0 km/h (0 Bft) 100 %
05.05.2017 11:20 12,3 C 12,3 C 12,3 C 77 % 1018,5 hPa 0,0 l/m 0,0 km/h (0 Bft) NW 315 10 min 0,000 mm 292 W/m 8,4 C 12,3 C 1,6 km/h (1 Bft) 100 %
05.05.2017 11:30 12,3 C 12,3 C 12,3 C 77 % 1018,5 hPa 0,0 l/m 0,0 km/h (0 Bft) N 0 10 min 0,000 mm 248 W/m 8,4 C 12,3 C 0,0 km/h (0 Bft) 100 %
05.05.2017 11:40 12,3 C 12,3 C 12,3 C 77 % 1018,5 hPa 0,0 l/m 0,0 km/h (0 Bft) N 0 10 min 0,000 mm 211 W/m 8,4 C 12,3 C 0,0 km/h (0 Bft) 100 %
05.05.2017 11:50 12,2 C 12,2 C 12,3 C 76 % 1018,5 hPa 0,0 l/m 0,0 km/h (0 Bft) NW 315 10 min 0,000 mm 258 W/m 8,1 C 12,2 C 4,8 km/h (1 Bft) 100 %
05.05.2017 12:00 12,2 C 12,2 C 12,2 C 74 % 1018,5 hPa 0,0 l/m 0,0 km/h (0 Bft) NW 315 10 min 0,127 mm 332 W/m 7,7 C 12,2 C 1,6 km/h (1 Bft) 100 %
05.05.2017 12:10 12,3 C 12,2 C 12,3 C 76 % 1018,5 hPa 0,0 l/m 0,0 km/h (0 Bft) N 0 10 min 0,000 mm 330 W/m 8,2 C 12,3 C 0,0 km/h (0 Bft) 100 %
05.05.2017 12:20 12,5 C 12,3 C 12,5 C 75 % 1018,6 hPa 0,0 l/m 0,0 km/h (0 Bft) NW 315 10 min 0,000 mm 290 W/m 8,2 C 12,5 C 1,6 km/h (1 Bft) 100 %
05.05.2017 12:30 12,7 C 12,5 C 12,7 C 75 % 1018,6 hPa 0,0 l/m 0,0 km/h (0 Bft) NW 315 10 min 0,000 mm 313 W/m 8,4 C 12,7 C 1,6 km/h (1 Bft) 100 %
05.05.2017 12:40 12,7 C 12,7 C 12,7 C 71 % 1018,6 hPa 0,0 l/m 0,0 km/h (0 Bft) N 0 10 min 0,000 mm 316 W/m 7,6 C 12,7 C 0,0 km/h (0 Bft) 100 %
05.05.2017 12:50 12,8 C 12,7 C 12,8 C 74 % 1018,5 hPa 0,0 l/m 0,0 km/h (0 Bft) NW 315 10 min 0,000 mm 295 W/m 8,3 C 12,8 C 1,6 km/h (1 Bft) 100 %
05.05.2017 13:00 13,0 C 12,8 C 13,1 C 73 % 1018,5 hPa 0,0 l/m 0,0 km/h (0 Bft) NW 315 10 min 0,127 mm 221 W/m 8,3 C 13,0 C 1,6 km/h (1 Bft) 100 %
05.05.2017 13:10 12,9 C 12,9 C 13,0 C 75 % 1018,5 hPa 0,0 l/m 0,0 km/h (0 Bft) N 0 10 min 0,000 mm 211 W/m 8,6 C 12,9 C 0,0 km/h (0 Bft) 100 %
05.05.2017 13:20 12,8 C 12,8 C 12,9 C 74 % 1018,5 hPa 0,0 l/m 0,0 km/h (0 Bft) N 0 10 min 0,000 mm 292 W/m 8,3 C 12,8 C 0,0 km/h (0 Bft) 100 %
05.05.2017 13:30 12,9 C 12,8 C 12,9 C 74 % 1018,5 hPa 0,0 l/m 0,0 km/h (0 Bft) NW 315 10 min 0,000 mm 302 W/m 8,4 C 12,9 C 1,6 km/h (1 Bft) 100 %
05.05.2017 13:40 13,1 C 12,9 C 13,1 C 72 % 1018,4 hPa 0,0 l/m 0,0 km/h (0 Bft) N 0 10 min 0,000 mm 304 W/m 8,2 C 13,1 C 0,0 km/h (0 Bft) 100 %
05.05.2017 13:50 13,3 C 13,1 C 13,3 C 76 % 1018,4 hPa 0,0 l/m 0,0 km/h (0 Bft) NW 315 10 min 0,000 mm 380 W/m 9,2 C 13,3 C 1,6 km/h (1 Bft) 100 %
05.05.2017 14:00 13,4 C 13,2 C 13,4 C 73 % 1018,4 hPa 0,0 l/m 0,0 km/h (0 Bft) NW 315 10 min 0,152 mm 392 W/m 8,7 C 13,4 C 4,8 km/h (1 Bft) 100 %
05.05.2017 14:10 13,6 C 13,4 C 13,6 C 73 % 1018,4 hPa 0,0 l/m 0,0 km/h (0 Bft) NW 315 10 min 0,000 mm 429 W/m 8,9 C 13,6 C 1,6 km/h (1 Bft) 100 %
05.05.2017 14:20 13,8 C 13,6 C 13,8 C 71 % 1018,5 hPa 0,0 l/m 0,0 km/h (0 Bft) N-NW 337 10 min 0,000 mm 424 W/m 8,6 C 13,8 C 1,6 km/h (1 Bft) 100 %
05.05.2017 14:30 13,9 C 13,8 C 13,9 C 68 % 1018,3 hPa 0,0 l/m 0,0 km/h (0 Bft) N-NW 337 10 min 0,000 mm 427 W/m 8,1 C 13,9 C 1,6 km/h (1 Bft) 100 %
05.05.2017 14:40 13,8 C 13,8 C 13,9 C 70 % 1018,4 hPa 0,0 l/m 0,0 km/h (0 Bft) N 360 10 min 0,000 mm 373 W/m 8,4 C 13,8 C 1,6 km/h (1 Bft) 99 %
05.05.2017 14:50 13,9 C 13,8 C 13,9 C 73 % 1018,3 hPa 0,0 l/m 0,0 km/h (0 Bft) N 360 10 min 0,000 mm 371 W/m 9,1 C 13,9 C 1,6 km/h (1 Bft) 100 %
05.05.2017 15:00 13,9 C 13,9 C 13,9 C 70 % 1018,3 hPa 0,0 l/m 0,0 km/h (0 Bft) N 360 10 min 0,203 mm 406 W/m 8,5 C 13,9 C 1,6 km/h (1 Bft) 100 %
05.05.2017 15:10 14,1 C 13,9 C 14,1 C 69 % 1018,3 hPa 0,0 l/m 0,0 km/h (0 Bft) N 0 10 min 0,000 mm 390 W/m 8,5 C 14,1 C 0,0 km/h (0 Bft) 100 %
05.05.2017 15:20 14,0 C 14,0 C 14,1 C 68 % 1018,2 hPa 0,0 l/m 0,0 km/h (0 Bft) N 0 10 min 0,000 mm 322 W/m 8,2 C 14,0 C 0,0 km/h (0 Bft) 100 %
05.05.2017 15:30 13,8 C 13,8 C 14,0 C 69 % 1018,2 hPa 0,0 l/m 0,0 km/h (0 Bft) N 360 10 min 0,000 mm 302 W/m 8,2 C 13,8 C 1,6 km/h (1 Bft) 100 %
05.05.2017 15:40 13,9 C 13,8 C 13,9 C 69 % 1018,1 hPa 0,0 l/m 1,6 km/h (1 Bft) N-NO 22 10 min 0,000 mm 352 W/m 8,3 C 13,9 C 8,0 km/h (2 Bft) 100 %
05.05.2017 15:50 14,0 C 13,9 C 14,0 C 68 % 1017,9 hPa 0,0 l/m 0,0 km/h (0 Bft) N-NO 22 10 min 0,000 mm 332 W/m 8,2 C 14,0 C 1,6 km/h (1 Bft) 100 %
05.05.2017 16:00 14,1 C 14,0 C 14,1 C 71 % 1017,9 hPa 0,0 l/m 0,0 km/h (0 Bft) N-NO 22 10 min 0,152 mm 318 W/m 8,9 C 14,1 C 1,6 km/h (1 Bft) 100 %
05.05.2017 16:10 14,3 C 14,1 C 14,3 C 68 % 1017,7 hPa 0,0 l/m 0,0 km/h (0 Bft) SO 135 10 min 0,000 mm 429 W/m 8,5 C 14,3 C 8,0 km/h (2 Bft) 100 %
05.05.2017 16:20 14,9 C 14,3 C 14,9 C 70 % 1017,5 hPa 0,0 l/m 1,6 km/h (1 Bft) N 360 10 min 0,000 mm 496 W/m 9,5 C 14,9 C 8,0 km/h (2 Bft) 100 %
05.05.2017 16:30 15,1 C 14,9 C 15,1 C 69 % 1017,3 hPa 0,0 l/m 0,0 km/h (0 Bft) NO 45 10 min 0,000 mm 478 W/m 9,5 C 15,1 C 1,6 km/h (1 Bft) 100 %
05.05.2017 16:40 15,2 C 15,1 C 15,2 C 71 % 1017,3 hPa 0,0 l/m 0,0 km/h (0 Bft) N-NW 337 10 min 0,000 mm 227 W/m 10,0 C 15,2 C 1,6 km/h (1 Bft) 100 %
05.05.2017 16:50 15,2 C 15,1 C 15,2 C 70 % 1017,3 hPa 0,0 l/m 0,0 km/h (0 Bft) NO 45 0 min 0,000 mm 146 W/m 9,8 C 15,2 C 11,3 km/h (2 Bft) 100 %
05.05.2017 17:00 15,3 C 15,2 C 15,3 C 68 % 1017,3 hPa 0,0 l/m 0,0 km/h (0 Bft) N-NO 22 0 min 0,127 mm 132 W/m 9,4 C 15,3 C 6,4 km/h (2 Bft) 100 %
05.05.2017 17:10 15,4 C 15,3 C 15,4 C 65 % 1017,3 hPa 0,0 l/m 0,0 km/h (0 Bft) N-NO 22 0 min 0,000 mm 127 W/m 8,9 C 15,4 C 8,0 km/h (2 Bft) 100 %
05.05.2017 17:20 15,2 C 15,2 C 15,4 C 67 % 1017,3 hPa 0,0 l/m 0,0 km/h (0 Bft) O-SO 112 0 min 0,000 mm 142 W/m 9,1 C 15,2 C 6,4 km/h (2 Bft) 100 %
05.05.2017 17:30 15,1 C 15,1 C 15,2 C 67 % 1017,1 hPa 0,0 l/m 1,6 km/h (1 Bft) O-SO 112 0 min 0,000 mm 139 W/m 9,0 C 15,1 C 9,7 km/h (2 Bft) 100 %
05.05.2017 17:40 15,1 C 15,1 C 15,2 C 68 % 1017,1 hPa 0,0 l/m 0,0 km/h (0 Bft) O-NO 67 0 min 0,000 mm 91 W/m 9,2 C 15,1 C 1,6 km/h (1 Bft) 100 %
05.05.2017 17:50 14,4 C 14,4 C 15,1 C 65 % 1017,1 hPa 0,0 l/m 0,0 km/h (0 Bft) O-SO 112 0 min 0,000 mm 69 W/m 7,9 C 14,4 C 8,0 km/h (2 Bft) 100 %
05.05.2017 18:00 14,1 C 14,1 C 14,4 C 68 % 1017,4 hPa 0,0 l/m 0,0 km/h (0 Bft) N 0 0 min 0,051 mm 62 W/m 8,3 C 14,1 C 0,0 km/h (0 Bft) 100 %
05.05.2017 18:10 14,1 C 14,1 C 14,2 C 68 % 1017,3 hPa 0,0 l/m 0,0 km/h (0 Bft) S 180 0 min 0,000 mm 67 W/m 8,3 C 14,1 C 4,8 km/h (1 Bft) 100 %
05.05.2017 18:20 14,1 C 14,1 C 14,2 C 68 % 1017,1 hPa 0,0 l/m 0,0 km/h (0 Bft) S 180 0 min 0,000 mm 60 W/m 8,3 C 14,1 C 1,6 km/h (1 Bft) 100 %
05.05.2017 18:30 14,1 C 14,1 C 14,1 C 67 % 1017,2 hPa 0,0 l/m 0,0 km/h (0 Bft) SW 225 0 min 0,000 mm 56 W/m 8,1 C 14,1 C 1,6 km/h (1 Bft) 100 %
05.05.2017 18:40 14,3 C 14,1 C 14,3 C 68 % 1017,1 hPa 0,0 l/m 0,0 km/h (0 Bft) W-NW 292 0 min 0,000 mm 58 W/m 8,5 C 14,3 C 3,2 km/h (1 Bft) 89 %
05.05.2017 18:50 14,3 C 14,3 C 14,3 C 68 % 1017,1 hPa 0,0 l/m 0,0 km/h (0 Bft) N 0 0 min 0,000 mm 77 W/m 8,5 C 14,3 C 0,0 km/h (0 Bft) 100 %
05.05.2017 19:00 14,3 C 14,3 C 14,4 C 68 % 1017,0 hPa 0,0 l/m 0,0 km/h (0 Bft) N-NW 337 0 min 0,025 mm 81 W/m 8,5 C 14,3 C 1,6 km/h (1 Bft) 99 %
05.05.2017 19:10 14,2 C 14,2 C 14,3 C 70 % 1016,9 hPa 0,0 l/m 0,0 km/h (0 Bft) N-NW 337 0 min 0,000 mm 58 W/m 8,8 C 14,2 C 4,8 km/h (1 Bft) 100 %
05.05.2017 19:20 13,9 C 13,9 C 14,2 C 71 % 1016,8 hPa 0,0 l/m 0,0 km/h (0 Bft) N-NW 337 0 min 0,000 mm 46 W/m 8,7 C 13,9 C 1,6 km/h (1 Bft) 100 %
05.05.2017 19:30 13,7 C 13,7 C 13,9 C 72 % 1016,8 hPa 0,0 l/m 0,0 km/h (0 Bft) N 0 0 min 0,000 mm 35 W/m 8,7 C 13,7 C 0,0 km/h (0 Bft) 100 %
05.05.2017 19:40 13,5 C 13,5 C 13,7 C 71 % 1016,8 hPa 0,0 l/m 0,0 km/h (0 Bft) N-NW 337 0 min 0,000 mm 32 W/m 8,3 C 13,5 C 1,6 km/h (1 Bft) 100 %
05.05.2017 19:50 13,2 C 13,2 C 13,4 C 71 % 1016,8 hPa 0,0 l/m 0,0 km/h (0 Bft) N 0 0 min 0,000 mm 28 W/m 8,1 C 13,2 C 0,0 km/h (0 Bft) 99 %
05.05.2017 20:00 12,9 C 12,9 C 13,2 C 72 % 1016,8 hPa 0,0 l/m 0,0 km/h (0 Bft) N 0 0 min 0,025 mm 25 W/m 8,0 C 12,9 C 0,0 km/h (0 Bft) 100 %
05.05.2017 20:10 12,7 C 12,7 C 12,9 C 74 % 1016,7 hPa 0,0 l/m 0,0 km/h (0 Bft) N 0 0 min 0,000 mm 21 W/m 8,2 C 12,7 C 0,0 km/h (0 Bft) 99 %
05.05.2017 20:20 12,3 C 12,3 C 12,9 C 75 % 1016,6 hPa 0,0 l/m 0,0 km/h (0 Bft) N-NW 334 0 min 0,002 mm 14 W/m 8,0 C 12,3 C 0,0 km/h (0 Bft) 100 %
05.05.2017 20:30 12,1 C 12,0 C 12,3 C 76 % 1016,6 hPa 0,0 l/m 0,0 km/h (0 Bft) N-NW 334 0 min 0,000 mm 11 W/m 8,0 C 12,1 C 0,0 km/h (0 Bft) 100 %
05.05.2017 20:40 11,7 C 11,7 C 12,1 C 76 % 1016,6 hPa 0,0 l/m 0,0 km/h (0 Bft) N-NW 334 0 min 0,000 mm 5 W/m 7,6 C 11,7 C 0,0 km/h (0 Bft) 100 %
05.05.2017 20:50 11,3 C 11,3 C 11,7 C 77 % 1016,7 hPa 0,0 l/m 0,0 km/h (0 Bft) N-NW 334 0 min 0,000 mm 0 W/m 7,4 C 11,3 C 1,6 km/h (1 Bft) 100 %
05.05.2017 21:00 10,9 C 10,9 C 11,3 C 78 % 1016,8 hPa 0,0 l/m 0,0 km/h (0 Bft) N-NW 334 0 min 0,000 mm 0 W/m 7,2 C 10,9 C 0,0 km/h (0 Bft) 99 %
05.05.2017 21:10 10,6 C 10,6 C 10,9 C 80 % 1016,9 hPa 0,0 l/m 0,0 km/h (0 Bft) N 360 0 min 0,000 mm 0 W/m 7,3 C 10,6 C 3,2 km/h (1 Bft) 100 %
05.05.2017 21:20 10,3 C 10,3 C 10,6 C 81 % 1016,7 hPa 0,0 l/m 0,0 km/h (0 Bft) N 360 0 min 0,000 mm 0 W/m 7,2 C 10,3 C 1,6 km/h (1 Bft) 100 %
05.05.2017 21:30 10,0 C 10,0 C 10,3 C 83 % 1016,7 hPa 0,0 l/m 0,0 km/h (0 Bft) N-NO 22 0 min 0,000 mm 0 W/m 7,2 C 10,0 C 4,8 km/h (1 Bft) 100 %
05.05.2017 21:40 9,8 C 9,8 C 10,0 C 84 % 1016,6 hPa 0,0 l/m 0,0 km/h (0 Bft) NO 45 0 min 0,000 mm 0 W/m 7,2 C 9,8 C 6,4 km/h (2 Bft) 100 %
05.05.2017 21:50 9,6 C 9,6 C 9,8 C 84 % 1016,5 hPa 0,0 l/m 0,0 km/h (0 Bft) O-NO 67 0 min 0,000 mm 0 W/m 7,0 C 9,6 C 4,8 km/h (1 Bft) 99 %
05.05.2017 22:00 9,6 C 9,6 C 9,6 C 85 % 1016,5 hPa 0,0 l/m 0,0 km/h (0 Bft) O-NO 67 0 min 0,000 mm 0 W/m 7,2 C 9,6 C 8,0 km/h (2 Bft) 98 %
05.05.2017 22:10 9,5 C 9,5 C 9,6 C 85 % 1016,7 hPa 0,0 l/m 0,0 km/h (0 Bft) O-NO 67 0 min 0,000 mm 0 W/m 7,1 C 9,5 C 11,3 km/h (2 Bft) 97 %
05.05.2017 22:20 9,4 C 9,4 C 9,5 C 85 % 1016,6 hPa 0,0 l/m 0,0 km/h (0 Bft) NO 45 0 min 0,000 mm 0 W/m 7,0 C 9,4 C 6,4 km/h (2 Bft) 88 %
05.05.2017 22:30 9,3 C 9,2 C 9,4 C 86 % 1016,6 hPa 0,0 l/m 0,0 km/h (0 Bft) O 90 0 min 0,000 mm 0 W/m 7,1 C 9,3 C 1,6 km/h (1 Bft) 97 %
05.05.2017 22:40 9,1 C 9,1 C 9,2 C 86 % 1016,7 hPa 0,0 l/m 0,0 km/h (0 Bft) O-NO 67 0 min 0,000 mm 0 W/m 6,9 C 9,1 C 4,8 km/h (1 Bft) 98 %
05.05.2017 22:50 9,0 C 9,0 C 9,1 C 87 % 1016,5 hPa 0,0 l/m 0,0 km/h (0 Bft) NO 45 0 min 0,000 mm 0 W/m 7,0 C 9,0 C 8,0 km/h (2 Bft) 97 %
05.05.2017 23:00 8,9 C 8,9 C 9,0 C 87 % 1016,6 hPa 0,0 l/m 0,0 km/h (0 Bft) NO 45 0 min 0,000 mm 0 W/m 6,9 C 8,9 C 4,8 km/h (1 Bft) 97 %
05.05.2017 23:10 8,8 C 8,8 C 8,9 C 87 % 1016,3 hPa 0,0 l/m 0,0 km/h (0 Bft) NO 45 0 min 0,000 mm 0 W/m 6,8 C 8,8 C 8,0 km/h (2 Bft) 98 %
05.05.2017 23:20 8,7 C 8,7 C 8,8 C 88 % 1016,2 hPa 0,0 l/m 0,0 km/h (0 Bft) NO 45 0 min 0,000 mm 0 W/m 6,8 C 8,7 C 6,4 km/h (2 Bft) 97 %
05.05.2017 23:30 8,6 C 8,6 C 8,7 C 88 % 1016,0 hPa 0,0 l/m 0,0 km/h (0 Bft) NO 45 0 min 0,000 mm 0 W/m 6,7 C 8,6 C 6,4 km/h (2 Bft) 98 %
05.05.2017 23:40 8,5 C 8,5 C 8,6 C 88 % 1016,0 hPa 0,0 l/m 0,0 km/h (0 Bft) NO 45 0 min 0,000 mm 0 W/m 6,6 C 8,5 C 4,8 km/h (1 Bft) 97 %
05.05.2017 23:50 8,4 C 8,4 C 8,5 C 89 % 1015,9 hPa 0,0 l/m 1,6 km/h (1 Bft) NO 45 0 min 0,000 mm 0 W/m 6,7 C 8,4 C 8,0 km/h (2 Bft) 98 %
_ Min-Zeit 01:30 01:30 01:30 17:10 23:50 - 00:00 - - - - - 01:30 01:30 00:00 22:20
Minimum _ 6,9 C 6,9 C 7,0 C 65 % 1015,9 hPa - 0,0 km/h (0 Bft) - - - - - 5,5 C 6,9 C 0,0 km/h (0 Bft) 88 %
_ Max-Zeit 17:10 17:10 17:10 02:10 09:50 00:00 10:20 - - 08:10 15:00 10:10 16:40 17:10 16:50 00:10
Maximum _ 15,4 C 15,3 C 15,4 C 92 % 1018,6 hPa 0,0 l/m 3,2 km/h
W-NW (1 Bft)
- - 10 min 0,203 mm 805 W/m 10,0 C 15,4 C 11,3 km/h
NO (2 Bft)
100 %
Durchschnitt _ 10,6 C 10,5 C 10,7 C 82 % 1017,4 hPa #0,0 l/m 0,1 km/h (0 Bft) W-NW - #8:40 h #1,422 mm 227 W/m 7,5 C 10,6 C 2,0 km/h (1 Bft) 99 %
PRIVATE WETTERSTATION BILLIGHEIM-ALLFELD - www.neckar-odenwald-wetter.de - Holger Sonntag